Time;durP1;ratioP1;P1;durP2;ratioP2;P2;SDS_P1;SDS_P2;PMS_P1;PMS_P2;Temp;Humidity;BMP_temperature;BMP_pressure;BME280_temperature;BME280_humidity;BME280_pressure;Samples;Min_cycle;Max_cycle;Signal;HPM_P1;HPM_P2
2023/03/28 00:01:59;;;;;;;6.57;3.07;;;;;;;;;;5023018;28;20181;-77
2023/03/28 00:04:28;;;;;;;6.43;3.13;;;;;;;;;;5017432;28;20187;-80
2023/03/28 00:06:55;;;;;;;5.07;2.83;;;;;;;;;;5012029;28;20215;-80
2023/03/28 00:09:21;;;;;;;3.90;2.30;;;;;;;;;;4995032;28;20631;-79
2023/03/28 00:11:47;;;;;;;3.60;2.23;;;;;;;;;;5022206;28;20554;-79
2023/03/28 00:14:14;;;;;;;4.93;2.53;;;;;;;;;;5001905;28;20221;-78
2023/03/28 00:16:44;;;;;;;4.27;2.40;;;;;;;;;;4989225;28;20233;-80
2023/03/28 00:19:12;;;;;;;7.33;3.10;;;;;;;;;;5008009;28;21285;-78
2023/03/28 00:21:40;;;;;;;4.40;2.90;;;;;;;;;;4992214;28;20217;-77
2023/03/28 00:24:09;;;;;;;6.00;3.00;;;;;;;;;;5006645;28;20283;-80
2023/03/28 00:26:36;;;;;;;4.90;2.90;;;;;;;;;;5001095;28;20198;-80
2023/03/28 00:29:04;;;;;;;7.20;3.10;;;;;;;;;;4989027;28;20179;-80
2023/03/28 00:31:33;;;;;;;5.47;2.90;;;;;;;;;;4990213;28;20207;-78
2023/03/28 00:34:00;;;;;;;4.87;2.70;;;;;;;;;;5019142;28;20285;-79
2023/03/28 00:36:28;;;;;;;5.80;2.80;;;;;;;;;;4994493;28;20183;-79
2023/03/28 00:38:57;;;;;;;3.13;2.40;;;;;;;;;;4990497;28;20335;-77
2023/03/28 00:41:25;;;;;;;4.97;2.70;;;;;;;;;;5018451;28;20731;-80
2023/03/28 00:43:53;;;;;;;5.53;3.03;;;;;;;;;;4988628;28;20651;-81
2023/03/28 00:46:25;;;;;;;7.70;3.90;;;;;;;;;;5022262;28;20719;-80
2023/03/28 00:48:57;;;;;;;6.90;3.40;;;;;;;;;;4997165;28;20206;-80
2023/03/28 00:51:25;;;;;;;4.93;3.10;;;;;;;;;;5007171;28;20308;-79
2023/03/28 00:53:53;;;;;;;10.10;4.53;;;;;;;;;;5005918;28;20198;-80
2023/03/28 00:56:22;;;;;;;8.30;4.13;;;;;;;;;;4994671;28;20638;-79
2023/03/28 00:58:49;;;;;;;6.53;4.13;;;;;;;;;;5017017;28;20209;-80
2023/03/28 01:01:18;;;;;;;8.27;3.80;;;;;;;;;;5000247;28;20250;-81
2023/03/28 01:03:46;;;;;;;7.93;4.33;;;;;;;;;;4987283;28;20175;-80
2023/03/28 01:06:14;;;;;;;8.33;3.50;;;;;;;;;;4999382;28;20266;-77
2023/03/28 01:08:42;;;;;;;6.57;3.17;;;;;;;;;;4997861;28;20262;-80
2023/03/28 01:11:10;;;;;;;11.97;4.73;;;;;;;;;;4991953;28;20476;-80
2023/03/28 01:13:38;;;;;;;6.73;4.20;;;;;;;;;;5009950;28;20179;-79
2023/03/28 01:16:05;;;;;;;7.30;3.40;;;;;;;;;;5024884;28;20182;-79
2023/03/28 01:18:33;;;;;;;9.27;4.63;;;;;;;;;;5005759;28;20285;-78
2023/03/28 01:21:06;;;;;;;8.97;4.47;;;;;;;;;;4992381;28;20209;-79
2023/03/28 01:23:42;;;;;;;18.53;7.40;;;;;;;;;;5005270;28;21138;-79
2023/03/28 01:26:15;;;;;;;20.63;8.10;;;;;;;;;;4987019;28;20190;-80
2023/03/28 01:28:41;;;;;;;19.87;7.30;;;;;;;;;;4989687;28;20198;-80
2023/03/28 01:31:26;;;;;;;12.63;5.40;;;;;;;;;;4976294;28;20210;-80
2023/03/28 01:34:32;;;;;;;9.23;3.73;;;;;;;;;;5004658;28;20407;-81
2023/03/28 01:37:04;;;;;;;4.90;2.80;;;;;;;;;;4983315;28;20303;-80
2023/03/28 01:39:42;;;;;;;5.50;2.37;;;;;;;;;;4989026;28;20225;-80
2023/03/28 01:42:21;;;;;;;10.13;4.23;;;;;;;;;;5024775;28;20593;-78
2023/03/28 01:44:51;;;;;;;31.57;12.23;;;;;;;;;;4992106;28;20268;-79
2023/03/28 01:47:26;;;;;;;14.77;5.83;;;;;;;;;;5007605;28;20198;-80
2023/03/28 01:50:02;;;;;;;10.13;4.23;;;;;;;;;;4999187;28;20337;-81
2023/03/28 01:52:43;;;;;;;7.10;3.73;;;;;;;;;;5034541;28;20196;-80
2023/03/28 01:55:31;;;;;;;5.37;2.70;;;;;;;;;;5008377;28;20282;-81
2023/03/28 01:58:05;;;;;;;4.67;2.60;;;;;;;;;;5007113;28;20206;-80
2023/03/28 02:00:42;;;;;;;5.27;2.80;;;;;;;;;;5005859;28;20202;-79
2023/03/28 02:03:17;;;;;;;21.93;9.27;;;;;;;;;;5009293;28;20807;-80
2023/03/28 02:05:51;;;;;;;13.10;6.07;;;;;;;;;;5009303;28;20190;-81
2023/03/28 02:08:18;;;;;;;10.17;4.63;;;;;;;;;;4976372;28;20200;-79
2023/03/28 02:10:50;;;;;;;6.13;3.67;;;;;;;;;;4996148;28;20206;-80
2023/03/28 02:13:40;;;;;;;4.87;3.10;;;;;;;;;;4992330;28;20199;-80
2023/03/28 02:16:27;;;;;;;5.43;2.73;;;;;;;;;;4997195;28;20270;-80
2023/03/28 02:19:01;;;;;;;4.37;2.57;;;;;;;;;;5008089;28;20188;-81
2023/03/28 02:21:53;;;;;;;3.60;2.50;;;;;;;;;;4982524;28;20225;-81
2023/03/28 02:24:42;;;;;;;4.20;2.40;;;;;;;;;;5019130;28;20201;-80
2023/03/28 02:27:21;;;;;;;6.07;2.97;;;;;;;;;;5006177;28;20190;-81
2023/03/28 02:29:58;;;;;;;6.97;2.60;;;;;;;;;;4988178;28;20214;-80
2023/03/28 02:32:50;;;;;;;4.33;2.73;;;;;;;;;;5004318;28;20198;-77
2023/03/28 02:35:22;;;;;;;5.43;2.80;;;;;;;;;;5014688;28;20193;-79
2023/03/28 02:38:09;;;;;;;5.23;2.80;;;;;;;;;;5002545;28;20218;-78
2023/03/28 02:40:41;;;;;;;5.13;3.27;;;;;;;;;;5014168;28;20198;-79
2023/03/28 02:43:28;;;;;;;5.37;3.53;;;;;;;;;;5008623;28;20184;-78
2023/03/28 02:46:03;;;;;;;4.87;3.17;;;;;;;;;;5010318;28;20714;-79
2023/03/28 02:48:30;;;;;;;5.20;2.67;;;;;;;;;;4993958;28;20206;-80
2023/03/28 02:51:09;;;;;;;6.20;2.77;;;;;;;;;;5021120;28;20218;-81
2023/03/28 02:53:35;;;;;;;5.87;3.00;;;;;;;;;;5023320;28;20179;-79
2023/03/28 02:56:11;;;;;;;8.77;3.80;;;;;;;;;;4994202;28;20319;-80
2023/03/28 02:58:59;;;;;;;8.87;4.10;;;;;;;;;;5010991;28;20214;-81
2023/03/28 03:01:28;;;;;;;5.07;3.30;;;;;;;;;;5011107;28;20701;-78
2023/03/28 03:03:55;;;;;;;7.35;3.22;;;;;;;;;;5018319;28;20417;-80
2023/03/28 03:06:21;;;;;;;5.80;3.30;;;;;;;;;;5014388;28;20716;-79
2023/03/28 03:08:47;;;;;;;4.23;2.70;;;;;;;;;;5006065;28;20286;-77
2023/03/28 03:11:14;;;;;;;4.67;3.00;;;;;;;;;;5031165;28;20803;-78
2023/03/28 03:13:42;;;;;;;5.80;2.70;;;;;;;;;;5021825;28;20631;-79
2023/03/28 03:16:09;;;;;;;4.93;2.97;;;;;;;;;;4996620;28;20198;-80
2023/03/28 03:18:35;;;;;;;6.23;3.00;;;;;;;;;;4991772;28;20234;-80
2023/03/28 03:21:02;;;;;;;4.53;2.80;;;;;;;;;;5011436;28;20222;-79
2023/03/28 03:23:28;;;;;;;4.10;2.83;;;;;;;;;;4977768;28;20182;-78
2023/03/28 03:25:57;;;;;;;7.03;3.10;;;;;;;;;;4994489;28;20179;-77
2023/03/28 03:28:40;;;;;;;7.37;3.90;;;;;;;;;;5002246;28;20250;-79
2023/03/28 03:31:07;;;;;;;19.83;8.33;;;;;;;;;;5024104;28;20268;-76
2023/03/28 03:33:45;;;;;;;14.57;7.17;;;;;;;;;;5015638;28;20313;-78
2023/03/28 03:36:16;;;;;;;11.63;6.93;;;;;;;;;;5001424;28;20662;-80
2023/03/28 03:38:42;;;;;;;12.70;6.97;;;;;;;;;;5009440;28;20259;-80
2023/03/28 03:41:13;;;;;;;9.70;5.57;;;;;;;;;;5010231;28;20241;-78
2023/03/28 03:43:40;;;;;;;9.00;4.80;;;;;;;;;;4992529;28;20183;-79
2023/03/28 03:46:06;;;;;;;10.23;5.03;;;;;;;;;;5013480;28;20235;-80
2023/03/28 03:48:32;;;;;;;10.37;4.90;;;;;;;;;;4996282;28;20659;-80
2023/03/28 03:51:00;;;;;;;8.07;4.70;;;;;;;;;;5008137;28;20343;-80
2023/03/28 03:53:27;;;;;;;9.20;4.77;;;;;;;;;;4992438;28;20183;-80
2023/03/28 03:56:03;;;;;;;7.10;4.13;;;;;;;;;;4993655;28;20213;-81
2023/03/28 03:58:48;;;;;;;7.60;4.23;;;;;;;;;;5007354;28;20696;-81
2023/03/28 04:01:15;;;;;;;6.90;4.20;;;;;;;;;;4995415;28;20277;-80
2023/03/28 04:03:41;;;;;;;8.93;4.23;;;;;;;;;;5003873;28;20189;-81
2023/03/28 04:06:08;;;;;;;6.27;4.10;;;;;;;;;;4994022;28;20191;-80
2023/03/28 04:08:35;;;;;;;7.00;3.93;;;;;;;;;;4973351;28;20191;-80
2023/03/28 04:11:02;;;;;;;6.73;3.80;;;;;;;;;;5010628;28;20195;-80
2023/03/28 04:13:35;;;;;;;7.80;3.63;;;;;;;;;;5005828;28;20189;-78
2023/03/28 04:16:03;;;;;;;7.17;3.47;;;;;;;;;;4988500;28;20194;-80
2023/03/28 04:18:37;;;;;;;6.53;3.50;;;;;;;;;;4995714;28;20221;-78
2023/03/28 04:21:04;;;;;;;5.57;3.43;;;;;;;;;;5007331;28;20729;-81
2023/03/28 04:23:42;;;;;;;5.13;3.10;;;;;;;;;;5002882;28;20638;-77
2023/03/28 04:26:25;;;;;;;6.17;3.70;;;;;;;;;;4998535;28;20185;-81
2023/03/28 04:29:02;;;;;;;10.20;4.65;;;;;;;;;;5020827;28;20488;-80
2023/03/28 04:31:34;;;;;;;14.73;4.67;;;;;;;;;;5011339;28;20217;-79
2023/03/28 04:34:13;;;;;;;9.30;4.53;;;;;;;;;;5015779;28;20217;-80
2023/03/28 04:36:55;;;;;;;8.63;4.20;;;;;;;;;;5013235;28;20193;-80
2023/03/28 04:39:22;;;;;;;8.17;4.83;;;;;;;;;;4997356;28;20179;-81
2023/03/28 04:42:07;;;;;;;7.43;4.37;;;;;;;;;;5008760;28;20230;-80
2023/03/28 04:45:00;;;;;;;8.23;5.70;;;;;;;;;;4992403;28;20440;-79
2023/03/28 04:47:27;;;;;;;6.83;4.70;;;;;;;;;;4990770;28;20532;-80
2023/03/28 04:49:53;;;;;;;7.30;4.27;;;;;;;;;;4991523;28;20229;-81
2023/03/28 04:52:20;;;;;;;7.10;4.23;;;;;;;;;;4992703;28;20175;-81
2023/03/28 04:54:47;;;;;;;9.47;4.13;;;;;;;;;;5011272;28;20209;-79
2023/03/28 04:57:15;;;;;;;9.13;4.47;;;;;;;;;;5012136;28;20202;-78
2023/03/28 04:59:43;;;;;;;7.67;4.70;;;;;;;;;;5014009;28;20206;-80
2023/03/28 05:02:15;;;;;;;8.83;4.20;;;;;;;;;;4996251;28;20248;-80
2023/03/28 05:04:43;;;;;;;8.30;4.07;;;;;;;;;;4989344;28;20188;-81
2023/03/28 05:07:09;;;;;;;7.27;4.00;;;;;;;;;;5002692;28;20205;-80
2023/03/28 05:09:36;;;;;;;7.73;4.00;;;;;;;;;;4989279;28;20281;-79
2023/03/28 05:12:03;;;;;;;7.77;3.80;;;;;;;;;;5011991;28;20730;-79
2023/03/28 05:14:32;;;;;;;6.57;4.00;;;;;;;;;;5007275;28;20209;-80
2023/03/28 05:17:10;;;;;;;10.20;4.10;;;;;;;;;;4989780;28;20212;-81
2023/03/28 05:19:57;;;;;;;5.37;3.77;;;;;;;;;;5009901;28;20207;-77
2023/03/28 05:22:25;;;;;;;8.67;4.50;;;;;;;;;;5017667;28;20557;-78
2023/03/28 05:24:52;;;;;;;6.80;4.40;;;;;;;;;;5002337;28;20685;-80
2023/03/28 05:27:20;;;;;;;6.87;4.40;;;;;;;;;;5000508;28;20187;-80
2023/03/28 05:29:47;;;;;;;8.07;4.27;;;;;;;;;;5004134;28;20206;-79
2023/03/28 05:32:13;;;;;;;8.17;4.33;;;;;;;;;;4992295;28;20246;-80
2023/03/28 05:34:40;;;;;;;8.43;4.63;;;;;;;;;;4992855;28;20657;-80
2023/03/28 05:37:06;;;;;;;7.93;4.57;;;;;;;;;;5001808;28;20712;-80
2023/03/28 05:39:50;;;;;;;8.93;4.73;;;;;;;;;;5009196;28;20206;-80
2023/03/28 05:42:16;;;;;;;9.63;5.03;;;;;;;;;;4990603;28;20723;-80
2023/03/28 05:44:42;;;;;;;11.17;5.67;;;;;;;;;;4991176;28;20197;-80
2023/03/28 05:47:20;;;;;;;9.07;5.20;;;;;;;;;;5025737;28;20178;-80
2023/03/28 05:49:47;;;;;;;9.90;5.60;;;;;;;;;;5011223;28;20896;-78
2023/03/28 05:52:13;;;;;;;13.37;6.40;;;;;;;;;;4989179;28;20190;-76
2023/03/28 05:54:40;;;;;;;8.07;5.40;;;;;;;;;;5004400;28;20461;-76
2023/03/28 05:57:08;;;;;;;8.10;5.37;;;;;;;;;;5010029;28;20225;-75
2023/03/28 05:59:34;;;;;;;8.30;6.10;;;;;;;;;;4995544;28;20190;-75
2023/03/28 06:02:02;;;;;;;10.10;6.00;;;;;;;;;;5004792;28;20407;-75
2023/03/28 06:04:28;;;;;;;11.07;7.03;;;;;;;;;;5022966;28;20251;-75
2023/03/28 06:06:55;;;;;;;14.13;7.20;;;;;;;;;;5006146;28;20225;-75
2023/03/28 06:09:25;;;;;;;12.20;7.13;;;;;;;;;;5026078;28;20624;-75
2023/03/28 06:11:59;;;;;;;10.67;6.43;;;;;;;;;;5010136;28;20185;-75
2023/03/28 06:14:25;;;;;;;11.93;6.50;;;;;;;;;;5008603;28;20561;-75
2023/03/28 06:16:54;;;;;;;12.13;6.40;;;;;;;;;;5008609;28;20187;-76
2023/03/28 06:19:20;;;;;;;9.27;6.00;;;;;;;;;;5011160;28;20825;-75
2023/03/28 06:21:51;;;;;;;9.27;5.67;;;;;;;;;;5002256;28;20187;-75
2023/03/28 06:24:18;;;;;;;10.27;6.37;;;;;;;;;;5028257;28;20317;-75
2023/03/28 06:26:45;;;;;;;13.73;7.43;;;;;;;;;;5000241;28;20190;-76
2023/03/28 06:29:15;;;;;;;14.23;8.30;;;;;;;;;;5006432;28;20834;-77
2023/03/28 06:31:42;;;;;;;19.77;10.23;;;;;;;;;;5007417;28;20206;-77
2023/03/28 06:34:08;;;;;;;20.17;9.93;;;;;;;;;;5018872;28;20174;-76
2023/03/28 06:36:44;;;;;;;13.33;7.47;;;;;;;;;;5020453;28;20253;-77
2023/03/28 06:39:10;;;;;;;13.33;6.83;;;;;;;;;;4998160;28;20183;-78
2023/03/28 06:41:37;;;;;;;12.77;5.80;;;;;;;;;;4999305;28;20337;-78
2023/03/28 06:44:04;;;;;;;8.60;4.63;;;;;;;;;;5011802;28;20662;-78
2023/03/28 06:46:51;;;;;;;10.20;4.70;;;;;;;;;;5008359;28;20202;-78
2023/03/28 06:49:18;;;;;;;9.63;4.67;;;;;;;;;;5012282;28;20599;-79
2023/03/28 06:52:07;;;;;;;9.73;5.00;;;;;;;;;;5004723;28;20206;-78
2023/03/28 06:54:34;;;;;;;10.70;5.10;;;;;;;;;;4999495;28;20277;-78
2023/03/28 06:57:00;;;;;;;8.80;4.80;;;;;;;;;;5014153;28;20182;-78
2023/03/28 06:59:26;;;;;;;10.80;5.03;;;;;;;;;;5019614;28;20231;-78
2023/03/28 07:01:58;;;;;;;10.90;5.67;;;;;;;;;;5012779;28;20213;-79
2023/03/28 07:04:31;;;;;;;10.17;5.17;;;;;;;;;;5015098;28;20237;-78
2023/03/28 07:06:57;;;;;;;7.43;4.80;;;;;;;;;;4999283;28;20240;-78
2023/03/28 07:09:24;;;;;;;8.90;4.83;;;;;;;;;;5041737;28;20749;-79
2023/03/28 07:11:56;;;;;;;9.60;5.07;;;;;;;;;;5012125;28;20630;-79
2023/03/28 07:14:23;;;;;;;10.10;5.03;;;;;;;;;;4994362;28;20642;-78
2023/03/28 07:16:50;;;;;;;7.10;4.33;;;;;;;;;;5011234;28;20189;-78
2023/03/28 07:19:16;;;;;;;10.23;3.90;;;;;;;;;;5029254;28;20251;-79
2023/03/28 07:21:45;;;;;;;6.50;3.93;;;;;;;;;;5013090;28;20253;-79
2023/03/28 07:24:12;;;;;;;9.90;3.80;;;;;;;;;;5025162;28;20296;-78
2023/03/28 07:26:46;;;;;;;11.67;4.73;;;;;;;;;;5008141;28;20186;-78
2023/03/28 07:29:13;;;;;;;9.30;3.97;;;;;;;;;;5013515;28;20232;-78
2023/03/28 07:31:39;;;;;;;8.93;4.10;;;;;;;;;;5031288;28;20217;-78
2023/03/28 07:34:05;;;;;;;8.37;3.80;;;;;;;;;;5031336;28;20190;-78
2023/03/28 07:36:31;;;;;;;6.20;3.60;;;;;;;;;;5009823;28;20221;-79
2023/03/28 07:39:07;;;;;;;6.63;3.20;;;;;;;;;;5011561;28;20214;-79
2023/03/28 07:41:34;;;;;;;6.40;3.37;;;;;;;;;;5009850;28;20203;-79
2023/03/28 07:44:00;;;;;;;6.27;4.20;;;;;;;;;;5010213;28;20577;-80
2023/03/28 07:46:27;;;;;;;9.13;3.80;;;;;;;;;;5030989;28;20207;-80
2023/03/28 07:48:54;;;;;;;9.10;4.07;;;;;;;;;;5018804;28;20190;-77
2023/03/28 07:51:20;;;;;;;7.33;4.07;;;;;;;;;;4994710;28;20218;-76
2023/03/28 07:53:47;;;;;;;9.13;3.60;;;;;;;;;;5009312;28;20183;-77
2023/03/28 07:56:13;;;;;;;11.07;4.07;;;;;;;;;;5007464;28;20189;-75
2023/03/28 07:59:09;;;;;;;8.43;3.73;;;;;;;;;;5019001;28;20222;-74
2023/03/28 08:01:35;;;;;;;8.37;3.87;;;;;;;;;;5012551;28;20220;-74
2023/03/28 08:04:03;;;;;;;7.60;3.77;;;;;;;;;;5008940;28;20265;-75
2023/03/28 08:06:53;;;;;;;6.33;3.00;;;;;;;;;;5006499;28;20567;-75
2023/03/28 08:09:20;;;;;;;11.37;3.27;;;;;;;;;;5000824;28;20183;-75
2023/03/28 08:11:48;;;;;;;11.37;3.60;;;;;;;;;;5007971;28;20213;-76
2023/03/28 08:14:16;;;;;;;6.40;3.50;;;;;;;;;;5007692;28;20191;-77
2023/03/28 08:16:43;;;;;;;8.20;3.57;;;;;;;;;;4995058;28;20614;-77
2023/03/28 08:19:10;;;;;;;8.73;3.77;;;;;;;;;;5034137;28;20197;-80
2023/03/28 08:21:39;;;;;;;12.57;4.10;;;;;;;;;;5011117;28;20207;-80
2023/03/28 08:24:06;;;;;;;6.47;3.33;;;;;;;;;;5014758;28;20198;-80
2023/03/28 08:26:40;;;;;;;10.47;3.23;;;;;;;;;;4997731;28;20179;-79
2023/03/28 08:29:07;;;;;;;7.50;3.50;;;;;;;;;;5024647;28;20665;-79
2023/03/28 08:31:33;;;;;;;5.77;3.20;;;;;;;;;;5011109;28;20199;-80
2023/03/28 08:34:06;;;;;;;7.20;3.43;;;;;;;;;;5007816;28;20190;-80
2023/03/28 08:36:36;;;;;;;9.43;3.30;;;;;;;;;;5003642;28;20518;-79
2023/03/28 08:39:04;;;;;;;9.17;3.57;;;;;;;;;;4993369;28;20199;-80
2023/03/28 08:41:39;;;;;;;7.83;3.23;;;;;;;;;;5008938;28;20198;-80
2023/03/28 08:44:32;;;;;;;8.90;3.47;;;;;;;;;;5023694;28;20193;-80
2023/03/28 08:47:02;;;;;;;8.23;3.20;;;;;;;;;;4990059;28;20197;-80
2023/03/28 08:49:30;;;;;;;8.30;2.90;;;;;;;;;;5004825;28;20191;-80
2023/03/28 08:51:58;;;;;;;5.40;2.20;;;;;;;;;;5012021;28;20194;-80
2023/03/28 08:54:45;;;;;;;8.13;2.43;;;;;;;;;;5064571;28;20598;-79
2023/03/28 08:57:38;;;;;;;5.83;2.20;;;;;;;;;;5063731;28;20193;-77
2023/03/28 09:00:22;;;;;;;6.67;2.17;;;;;;;;;;5063870;28;20703;-77
2023/03/28 09:02:49;;;;;;;9.30;3.23;;;;;;;;;;5047022;28;20213;-79
2023/03/28 09:05:17;;;;;;;12.60;2.80;;;;;;;;;;5046754;28;20177;-77
2023/03/28 09:07:53;;;;;;;8.67;2.60;;;;;;;;;;5062633;28;20161;-79
2023/03/28 09:10:22;;;;;;;6.13;2.60;;;;;;;;;;5062889;28;20597;-79
2023/03/28 09:13:24;;;;;;;5.90;2.43;;;;;;;;;;5058253;28;20512;-77
2023/03/28 09:15:50;;;;;;;7.37;2.60;;;;;;;;;;5048395;28;20198;-77
2023/03/28 09:18:37;;;;;;;8.07;2.90;;;;;;;;;;5063680;28;20162;-77
2023/03/28 09:21:11;;;;;;;8.13;2.73;;;;;;;;;;5047833;28;20185;-79
2023/03/28 09:23:57;;;;;;;10.53;3.03;;;;;;;;;;5063314;28;20169;-79
2023/03/28 09:26:37;;;;;;;8.50;2.70;;;;;;;;;;5064327;28;20574;-78
2023/03/28 09:29:10;;;;;;;8.67;2.90;;;;;;;;;;5030635;28;20731;-79
2023/03/28 09:31:43;;;;;;;7.87;2.40;;;;;;;;;;5063355;28;20169;-78
2023/03/28 09:34:19;;;;;;;5.10;2.50;;;;;;;;;;5046123;28;20251;-79
2023/03/28 09:36:45;;;;;;;8.27;2.50;;;;;;;;;;5062827;28;20247;-79
2023/03/28 09:39:18;;;;;;;9.60;2.70;;;;;;;;;;5046585;28;20181;-79
2023/03/28 09:41:47;;;;;;;9.33;2.40;;;;;;;;;;5047098;28;20169;-76
2023/03/28 09:44:36;;;;;;;4.37;2.30;;;;;;;;;;5063937;28;20180;-77
2023/03/28 09:47:38;;;;;;;9.13;2.33;;;;;;;;;;5062568;28;20658;-79
2023/03/28 09:50:12;;;;;;;7.13;2.30;;;;;;;;;;5046037;28;20530;-80
2023/03/28 09:52:39;;;;;;;7.70;2.30;;;;;;;;;;5062006;28;20231;-76
2023/03/28 09:55:12;;;;;;;6.97;2.53;;;;;;;;;;5062680;28;20172;-77
2023/03/28 09:57:57;;;;;;;8.77;2.70;;;;;;;;;;5062909;28;20178;-77
2023/03/28 10:00:26;;;;;;;8.00;2.73;;;;;;;;;;5046104;28;20650;-76
2023/03/28 10:03:28;;;;;;;7.63;2.93;;;;;;;;;;5065386;28;20181;-77
2023/03/28 10:05:55;;;;;;;8.30;2.70;;;;;;;;;;5050130;28;20586;-78
2023/03/28 10:08:39;;;;;;;6.03;2.60;;;;;;;;;;5033895;28;20168;-77
2023/03/28 10:11:28;;;;;;;6.83;2.60;;;;;;;;;;5033535;28;20176;-78
2023/03/28 10:13:55;;;;;;;6.57;2.60;;;;;;;;;;5048720;28;20199;-76
2023/03/28 10:16:31;;;;;;;7.13;2.70;;;;;;;;;;5048754;28;20694;-77
2023/03/28 10:19:02;;;;;;;7.57;3.40;;;;;;;;;;5049048;28;20575;-78
2023/03/28 10:21:34;;;;;;;6.87;3.40;;;;;;;;;;5032353;28;20177;-77
2023/03/28 10:24:07;;;;;;;6.87;2.80;;;;;;;;;;5048997;28;20212;-78
2023/03/28 10:26:35;;;;;;;7.90;3.60;;;;;;;;;;5032522;28;20240;-80
2023/03/28 10:29:05;;;;;;;4.93;3.57;;;;;;;;;;5033236;28;20269;-79
2023/03/28 10:31:32;;;;;;;5.40;3.17;;;;;;;;;;5049002;28;20185;-79
2023/03/28 10:34:26;;;;;;;6.87;3.47;;;;;;;;;;5032754;28;20225;-82
2023/03/28 10:37:24;;;;;;;5.83;3.77;;;;;;;;;;5033308;28;20663;-85
2023/03/28 10:40:09;;;;;;;7.73;4.30;;;;;;;;;;5030672;28;20201;-78
2023/03/28 10:43:10;;;;;;;7.30;3.90;;;;;;;;;;5018734;28;20185;-79
2023/03/28 10:46:10;;;;;;;6.80;4.00;;;;;;;;;;5037641;28;20256;-78
2023/03/28 10:49:12;;;;;;;8.47;4.20;;;;;;;;;;5012933;28;20189;-76
2023/03/28 10:51:43;;;;;;;5.93;3.50;;;;;;;;;;5033069;23;20234;-77
2023/03/28 10:54:19;;;;;;;6.90;4.97;;;;;;;;;;4976290;28;20683;-79
2023/03/28 10:56:55;;;;;;;10.53;3.93;;;;;;;;;;5023237;28;20213;-81
2023/03/28 10:59:25;;;;;;;5.87;3.43;;;;;;;;;;5019448;28;20636;-79
2023/03/28 11:02:01;;;;;;;7.77;3.60;;;;;;;;;;5008756;28;20205;-78
2023/03/28 11:04:33;;;;;;;6.40;3.40;;;;;;;;;;5002860;28;20648;-79
2023/03/28 11:06:59;;;;;;;7.03;3.23;;;;;;;;;;5019378;28;20564;-83
2023/03/28 11:09:55;;;;;;;6.80;3.33;;;;;;;;;;4991988;28;20285;-76
2023/03/28 11:12:50;;;;;;;9.97;4.63;;;;;;;;;;5021884;28;20207;-78
2023/03/28 11:15:32;;;;;;;19.90;12.77;;;;;;;;;;5024566;28;20189;-81
2023/03/28 11:18:11;;;;;;;6.77;3.67;;;;;;;;;;5021286;28;20206;-79
2023/03/28 11:20:44;;;;;;;7.43;2.90;;;;;;;;;;5030115;28;20182;-79
2023/03/28 11:23:22;;;;;;;6.60;2.40;;;;;;;;;;5003417;28;20191;-77
2023/03/28 11:26:23;;;;;;;6.37;2.30;;;;;;;;;;5008450;28;20236;-77
2023/03/28 11:29:29;;;;;;;7.57;2.70;;;;;;;;;;5002421;28;20217;-77
2023/03/28 11:32:14;;;;;;;5.13;2.30;;;;;;;;;;5017157;28;20181;-78
2023/03/28 11:34:54;;;;;;;6.63;2.20;;;;;;;;;;5022058;28;20469;-78
2023/03/28 11:37:41;;;;;;;4.43;2.10;;;;;;;;;;5008496;28;20229;-75
2023/03/28 11:40:15;;;;;;;5.87;2.00;;;;;;;;;;5005766;28;20179;-78
2023/03/28 11:42:53;;;;;;;5.57;2.03;;;;;;;;;;5007026;28;20645;-77
2023/03/28 11:45:26;;;;;;;4.70;1.87;;;;;;;;;;5020945;28;20239;-77
2023/03/28 11:48:04;;;;;;;6.50;1.93;;;;;;;;;;4984832;28;20197;-77
2023/03/28 11:50:40;;;;;;;5.60;2.00;;;;;;;;;;5024103;28;20222;-78
2023/03/28 11:53:15;;;;;;;6.80;1.70;;;;;;;;;;5022767;28;20202;-76
2023/03/28 11:55:57;;;;;;;8.33;3.20;;;;;;;;;;5006223;28;20632;-75
2023/03/28 11:58:48;;;;;;;4.23;1.90;;;;;;;;;;5017687;28;20222;-78
2023/03/28 12:01:20;;;;;;;7.40;1.93;;;;;;;;;;5006277;28;20210;-78
2023/03/28 12:03:55;;;;;;;4.90;1.60;;;;;;;;;;5005338;28;20187;-77
2023/03/28 12:06:25;;;;;;;5.40;1.90;;;;;;;;;;4991566;28;20260;-76
2023/03/28 12:09:12;;;;;;;4.80;1.83;;;;;;;;;;5011996;28;20201;-77
2023/03/28 12:11:41;;;;;;;4.53;2.00;;;;;;;;;;5020781;28;20254;-78
2023/03/28 12:14:26;;;;;;;4.23;2.00;;;;;;;;;;5014181;28;20206;-79
2023/03/28 12:16:54;;;;;;;4.07;1.97;;;;;;;;;;5007304;28;20213;-78
2023/03/28 12:19:36;;;;;;;4.67;1.90;;;;;;;;;;4994915;28;20178;-78
2023/03/28 12:22:18;;;;;;;6.03;2.53;;;;;;;;;;5006996;28;20237;-77
2023/03/28 12:24:53;;;;;;;5.67;2.27;;;;;;;;;;5014195;28;20186;-78
2023/03/28 12:27:35;;;;;;;4.87;2.00;;;;;;;;;;5022814;28;20210;-77
2023/03/28 12:30:05;;;;;;;3.27;1.90;;;;;;;;;;5024500;28;20182;-78
2023/03/28 12:32:40;;;;;;;6.27;1.70;;;;;;;;;;4984070;28;20307;-79
2023/03/28 12:35:21;;;;;;;3.77;1.80;;;;;;;;;;5023563;28;20190;-76
2023/03/28 12:38:03;;;;;;;5.60;1.90;;;;;;;;;;5019008;28;20282;-78
2023/03/28 12:40:40;;;;;;;6.73;2.43;;;;;;;;;;5017441;28;20179;-77
2023/03/28 12:43:07;;;;;;;4.60;2.20;;;;;;;;;;5025501;28;20182;-78
2023/03/28 12:45:40;;;;;;;3.60;1.70;;;;;;;;;;5027536;28;20564;-77
2023/03/28 12:48:13;;;;;;;4.93;1.80;;;;;;;;;;5010191;28;20209;-79
2023/03/28 12:50:45;;;;;;;5.93;1.67;;;;;;;;;;5007011;28;20213;-78
2023/03/28 12:53:12;;;;;;;3.57;1.60;;;;;;;;;;5025030;28;20683;-77
2023/03/28 12:55:48;;;;;;;3.43;1.80;;;;;;;;;;4999937;28;20277;-77
2023/03/28 12:58:23;;;;;;;3.97;1.80;;;;;;;;;;5007295;28;20300;-77
2023/03/28 13:01:07;;;;;;;6.03;2.20;;;;;;;;;;5015890;28;20234;-77
2023/03/28 13:03:45;;;;;;;3.67;2.13;;;;;;;;;;5020067;28;20187;-76
2023/03/28 13:06:23;;;;;;;6.33;2.00;;;;;;;;;;5002055;28;20270;-78
2023/03/28 13:09:00;;;;;;;4.03;1.87;;;;;;;;;;4991172;28;20237;-78
2023/03/28 13:11:26;;;;;;;3.33;1.93;;;;;;;;;;5001824;28;20170;-75
2023/03/28 13:13:58;;;;;;;7.07;1.67;;;;;;;;;;5001430;28;20267;-75
2023/03/28 13:16:25;;;;;;;4.97;1.83;;;;;;;;;;4986448;28;20264;-75
2023/03/28 13:19:06;;;;;;;4.30;1.73;;;;;;;;;;5016199;28;20229;-77
2023/03/28 13:21:54;;;;;;;3.93;1.80;;;;;;;;;;5015801;28;20182;-75
2023/03/28 13:24:26;;;;;;;4.43;1.80;;;;;;;;;;5017163;28;20187;-75
2023/03/28 13:26:53;;;;;;;5.47;2.17;;;;;;;;;;4989068;28;20507;-75
2023/03/28 13:29:20;;;;;;;4.43;1.93;;;;;;;;;;5006955;28;20202;-78
2023/03/28 13:31:47;;;;;;;4.67;1.60;;;;;;;;;;5023425;28;20252;-79
2023/03/28 13:34:21;;;;;;;4.53;1.90;;;;;;;;;;5006561;28;20726;-78
2023/03/28 13:36:53;;;;;;;4.23;1.80;;;;;;;;;;4991036;28;20197;-79
2023/03/28 13:39:24;;;;;;;20.20;12.17;;;;;;;;;;5044665;28;20675;-80
2023/03/28 13:41:50;;;;;;;6.60;3.40;;;;;;;;;;5025514;28;20617;-76
2023/03/28 13:44:20;;;;;;;6.30;2.50;;;;;;;;;;5027191;28;20203;-77
2023/03/28 13:46:50;;;;;;;6.43;2.00;;;;;;;;;;4995743;28;20226;-77
2023/03/28 13:49:35;;;;;;;6.00;1.90;;;;;;;;;;5026240;28;20514;-77
2023/03/28 13:52:03;;;;;;;3.90;2.00;;;;;;;;;;5026700;28;20264;-77
2023/03/28 13:54:30;;;;;;;4.10;1.90;;;;;;;;;;4983413;28;20237;-75
2023/03/28 13:57:03;;;;;;;5.17;2.17;;;;;;;;;;5019255;28;20199;-77
2023/03/28 13:59:46;;;;;;;6.40;2.20;;;;;;;;;;5021974;28;20190;-77
2023/03/28 14:02:17;;;;;;;4.67;1.80;;;;;;;;;;5024175;28;20198;-76
2023/03/28 14:04:50;;;;;;;5.70;1.80;;;;;;;;;;5026915;28;20408;-77
2023/03/28 14:07:22;;;;;;;3.17;1.90;;;;;;;;;;5013957;28;20199;-76
2023/03/28 14:09:49;;;;;;;2.87;1.67;;;;;;;;;;5016787;28;20183;-76
2023/03/28 14:12:17;;;;;;;7.17;1.80;;;;;;;;;;5020837;28;20334;-76
2023/03/28 14:14:54;;;;;;;4.07;2.10;;;;;;;;;;5007558;28;20280;-75
2023/03/28 14:17:25;;;;;;;5.47;1.80;;;;;;;;;;5026887;28;20198;-77
2023/03/28 14:19:58;;;;;;;2.80;1.70;;;;;;;;;;5027686;28;20906;-75
2023/03/28 14:22:26;;;;;;;3.40;1.90;;;;;;;;;;5017642;28;20187;-76
2023/03/28 14:24:54;;;;;;;5.07;2.00;;;;;;;;;;5028612;28;20182;-77
2023/03/28 14:27:29;;;;;;;3.97;1.70;;;;;;;;;;5027887;28;20198;-77
2023/03/28 14:29:57;;;;;;;3.13;1.90;;;;;;;;;;5028945;28;20275;-75
2023/03/28 14:32:24;;;;;;;3.27;1.73;;;;;;;;;;5029162;28;20435;-75
2023/03/28 14:34:52;;;;;;;3.87;1.80;;;;;;;;;;5019249;28;20268;-75
2023/03/28 14:37:21;;;;;;;4.40;1.90;;;;;;;;;;5012705;28;20231;-78
2023/03/28 14:39:48;;;;;;;3.57;1.87;;;;;;;;;;5022366;28;20201;-80
2023/03/28 14:42:15;;;;;;;3.97;1.80;;;;;;;;;;5007710;28;20201;-82
2023/03/28 14:44:43;;;;;;;4.67;1.70;;;;;;;;;;5010606;28;20678;-78
2023/03/28 14:47:16;;;;;;;4.43;1.83;;;;;;;;;;5025685;28;20230;-77
2023/03/28 14:49:44;;;;;;;3.03;1.77;;;;;;;;;;5005650;28;20679;-80
2023/03/28 14:52:15;;;;;;;3.23;1.80;;;;;;;;;;4997366;28;20198;-78
2023/03/28 14:54:45;;;;;;;4.20;1.60;;;;;;;;;;5018838;28;20202;-75
2023/03/28 14:57:16;;;;;;;3.10;1.80;;;;;;;;;;5021384;28;20194;-74
2023/03/28 14:59:44;;;;;;;2.57;1.80;;;;;;;;;;5025761;28;20186;-77
2023/03/28 15:02:18;;;;;;;4.27;1.77;;;;;;;;;;5011160;28;20238;-77
2023/03/28 15:04:45;;;;;;;3.57;2.03;;;;;;;;;;5024373;28;20276;-76
2023/03/28 15:07:20;;;;;;;6.47;2.20;;;;;;;;;;5024140;28;20202;-79
2023/03/28 15:10:03;;;;;;;3.07;1.63;;;;;;;;;;5025284;28;20654;-78
2023/03/28 15:12:30;;;;;;;11.00;2.00;;;;;;;;;;4997802;28;20191;-78
2023/03/28 15:14:57;;;;;;;2.90;1.70;;;;;;;;;;5023850;28;20224;-77
2023/03/28 15:17:25;;;;;;;4.33;1.70;;;;;;;;;;5027509;28;20208;-78